Time;durP1;ratioP1;P1;durP2;ratioP2;P2;SDS_P1;SDS_P2;PMS_P1;PMS_P2;Temp;Humidity;BMP_temperature;BMP_pressure;BME280_temperature;BME280_humidity;BME280_pressure;Samples;Min_cycle;Max_cycle;Signal;HPM_P1;HPM_P2
2022/06/20 00:00:58;;;;;;;8.50;1.30;;;13.00;90.50;;;;;;5140443;27;20035;-63
2022/06/20 00:03:31;;;;;;;4.47;1.67;;;12.90;90.60;;;;;;5136525;27;20042;-63
2022/06/20 00:05:57;;;;;;;4.60;1.33;;;12.90;90.80;;;;;;5147230;27;20035;-63
2022/06/20 00:08:23;;;;;;;5.18;2.00;;;12.90;90.80;;;;;;5151176;27;20081;-63
2022/06/20 00:10:50;;;;;;;6.25;1.55;;;12.90;90.70;;;;;;5147410;27;20091;-63
2022/06/20 00:13:23;;;;;;;4.28;1.58;;;12.90;90.80;;;;;;5147642;27;20375;-63
2022/06/20 00:15:51;;;;;;;5.32;1.60;;;12.90;90.90;;;;;;5126150;27;20039;-63
2022/06/20 00:18:17;;;;;;;5.88;1.70;;;12.90;90.90;;;;;;5151751;27;20046;-63
2022/06/20 00:20:43;;;;;;;4.35;1.98;;;12.80;90.90;;;;;;5148202;27;20035;-63
2022/06/20 00:23:09;;;;;;;5.22;1.52;;;12.70;91.10;;;;;;5140353;27;20394;-63
2022/06/20 00:25:35;;;;;;;4.32;1.30;;;12.60;91.20;;;;;;5146961;27;21790;-62
2022/06/20 00:28:01;;;;;;;6.38;1.50;;;12.50;91.30;;;;;;5149285;27;20039;-62
2022/06/20 00:30:27;;;;;;;7.13;1.65;;;12.40;91.40;;;;;;5144715;27;20061;-62
2022/06/20 00:32:52;;;;;;;6.55;1.60;;;12.30;91.60;;;;;;5148064;27;20035;-63
2022/06/20 00:35:19;;;;;;;6.35;1.27;;;12.30;91.70;;;;;;5145898;27;20138;-62
2022/06/20 00:37:44;;;;;;;5.22;1.60;;;12.30;91.90;;;;;;5146390;27;20566;-63
2022/06/20 00:40:40;;;;;;;6.47;1.65;;;12.30;92.00;;;;;;5151018;27;20117;-62
2022/06/20 00:43:11;;;;;;;7.55;1.52;;;12.30;92.60;;;;;;5130623;27;20085;-63
2022/06/20 00:45:43;;;;;;;5.97;1.52;;;12.40;92.10;;;;;;5144270;27;20027;-63
2022/06/20 00:48:20;;;;;;;8.70;1.80;;;12.40;92.20;;;;;;5145140;27;20100;-62
2022/06/20 00:50:48;;;;;;;6.97;2.22;;;12.50;92.60;;;;;;5146911;27;20034;-62
2022/06/20 00:53:37;;;;;;;6.65;1.70;;;12.50;92.30;;;;;;5150156;27;20057;-63
2022/06/20 00:56:32;;;;;;;6.05;1.80;;;12.60;92.90;;;;;;5147442;27;20086;-63
2022/06/20 00:59:08;;;;;;;5.80;1.65;;;12.70;92.70;;;;;;5135266;27;20046;-62
2022/06/20 01:01:41;;;;;;;5.55;1.95;;;12.70;92.50;;;;;;5143917;27;20122;-62
2022/06/20 01:04:14;;;;;;;8.52;1.60;;;12.80;92.40;;;;;;5110103;27;20042;-63
2022/06/20 01:06:49;;;;;;;7.32;1.85;;;12.80;92.40;;;;;;5137495;27;20446;-63
2022/06/20 01:09:18;;;;;;;6.03;1.52;;;12.80;92.30;;;;;;5141651;27;20031;-63
2022/06/20 01:11:51;;;;;;;5.43;1.70;;;12.90;92.30;;;;;;5167693;27;20065;-63
2022/06/20 01:14:24;;;;;;;4.50;1.60;;;12.90;92.40;;;;;;5144228;27;20045;-63
2022/06/20 01:16:54;;;;;;;2.40;1.48;;;12.90;92.50;;;;;;5144577;27;20443;-63
2022/06/20 01:19:43;;;;;;;5.78;2.03;;;12.90;92.40;;;;;;5144891;27;20034;-63
2022/06/20 01:22:40;;;;;;;4.75;1.83;;;12.90;92.50;;;;;;5149831;27;20039;-63
2022/06/20 01:25:10;;;;;;;5.38;1.88;;;13.00;92.90;;;;;;5147765;27;20073;-63
2022/06/20 01:27:41;;;;;;;4.00;2.00;;;12.90;92.50;;;;;;5147166;27;20043;-62
2022/06/20 01:30:07;;;;;;;4.68;1.55;;;12.90;92.60;;;;;;5144990;27;20850;-62
2022/06/20 01:32:34;;;;;;;5.65;2.30;;;12.90;92.60;;;;;;5150041;27;20134;-62
2022/06/20 01:35:03;;;;;;;9.85;1.90;;;12.90;92.70;;;;;;5145354;27;20410;-62
2022/06/20 01:37:32;;;;;;;3.17;2.22;;;12.90;92.90;;;;;;5149061;27;20043;-63
2022/06/20 01:40:05;;;;;;;5.72;2.10;;;12.90;92.90;;;;;;5142741;27;20027;-62
2022/06/20 01:42:32;;;;;;;4.15;1.77;;;12.90;93.20;;;;;;5148059;27;20061;-63
2022/06/20 01:48:06;;;;;;;8.52;2.55;;;12.90;93.40;;;;;;5145275;27;20058;-63
2022/06/20 01:50:33;;;;;;;5.78;2.20;;;12.80;93.40;;;;;;5151154;27;20039;-63
2022/06/20 01:53:01;;;;;;;8.20;2.28;;;12.80;93.30;;;;;;5146718;27;20157;-63
2022/06/20 01:55:27;;;;;;;6.03;2.10;;;12.70;93.40;;;;;;5146378;27;20050;-62
2022/06/20 01:58:04;;;;;;;3.47;1.60;;;12.70;93.50;;;;;;5149340;27;20486;-63
2022/06/20 02:00:30;;;;;;;5.13;2.25;;;12.60;93.70;;;;;;5143225;27;20038;-63
2022/06/20 02:03:00;;;;;;;6.20;1.98;;;12.60;93.80;;;;;;5152564;27;20045;-62
2022/06/20 02:05:31;;;;;;;7.55;2.20;;;12.50;94.00;;;;;;5134283;27;20039;-62
2022/06/20 02:08:00;;;;;;;7.90;2.45;;;12.50;94.20;;;;;;5153462;27;20550;-62
2022/06/20 02:10:31;;;;;;;8.80;2.70;;;12.50;94.20;;;;;;5141207;27;20135;-62
2022/06/20 02:13:01;;;;;;;4.32;2.08;;;12.50;94.30;;;;;;5151224;27;20039;-62
2022/06/20 02:15:27;;;;;;;6.70;2.40;;;12.40;94.40;;;;;;5148808;27;20067;-63
2022/06/20 02:17:54;;;;;;;6.72;2.60;;;12.40;94.50;;;;;;5151719;27;20631;-62
2022/06/20 02:20:30;;;;;;;8.75;2.67;;;12.40;94.60;;;;;;5149644;27;20494;-62
2022/06/20 02:22:57;;;;;;;8.13;2.28;;;12.40;95.00;;;;;;5153214;27;20042;-63
2022/06/20 02:25:27;;;;;;;9.63;2.30;;;12.30;94.80;;;;;;5152104;27;20451;-62
2022/06/20 02:28:02;;;;;;;7.45;2.50;;;12.30;95.00;;;;;;5144364;27;20042;-62
2022/06/20 02:30:29;;;;;;;7.90;2.40;;;12.30;95.40;;;;;;5149837;27;20031;-62
2022/06/20 02:33:11;;;;;;;7.47;2.30;;;12.20;95.00;;;;;;5147469;27;20534;-63
2022/06/20 02:35:37;;;;;;;6.22;2.60;;;12.10;95.20;;;;;;5147259;27;20109;-62
2022/06/20 02:38:03;;;;;;;10.68;2.60;;;12.00;95.10;;;;;;5155279;27;20046;-62
2022/06/20 02:40:30;;;;;;;7.53;2.42;;;11.90;95.20;;;;;;5143109;27;20367;-63
2022/06/20 02:43:19;;;;;;;8.52;1.90;;;11.80;95.30;;;;;;5132169;27;20042;-62
2022/06/20 02:45:46;;;;;;;5.45;2.30;;;11.80;95.90;;;;;;5130650;27;20092;-63
2022/06/20 02:48:13;;;;;;;7.82;2.40;;;11.70;95.60;;;;;;5152503;27;20035;-62
2022/06/20 02:50:45;;;;;;;6.05;2.20;;;11.70;95.60;;;;;;5152211;27;20083;-62
2022/06/20 02:53:23;;;;;;;5.90;1.98;;;11.70;95.70;;;;;;5148453;27;20087;-62
2022/06/20 02:55:51;;;;;;;7.78;2.00;;;11.60;95.70;;;;;;5146848;27;20039;-62
2022/06/20 02:58:25;;;;;;;7.60;2.33;;;11.60;95.70;;;;;;5132409;27;20121;-62
2022/06/20 03:01:20;;;;;;;4.03;1.90;;;11.50;96.10;;;;;;5140985;27;20038;-63
2022/06/20 03:03:49;;;;;;;7.50;1.90;;;11.40;96.10;;;;;;5148845;27;20047;-62
2022/06/20 03:06:29;;;;;;;5.57;2.15;;;11.40;95.80;;;;;;5148618;27;20042;-63
2022/06/20 03:08:56;;;;;;;8.13;2.63;;;11.30;96.10;;;;;;5150062;27;20118;-62
2022/06/20 03:11:23;;;;;;;9.88;2.67;;;11.30;96.00;;;;;;5149677;27;20042;-62
2022/06/20 03:13:50;;;;;;;9.88;2.13;;;11.30;96.10;;;;;;5149694;27;20051;-62
2022/06/20 03:16:17;;;;;;;7.35;2.17;;;11.20;96.00;;;;;;5142987;27;20046;-62
2022/06/20 03:18:49;;;;;;;5.47;2.25;;;11.20;96.00;;;;;;5150649;27;20032;-62
2022/06/20 03:21:17;;;;;;;5.72;2.30;;;11.10;96.10;;;;;;5151195;27;20111;-62
2022/06/20 03:23:42;;;;;;;8.07;1.95;;;11.00;96.10;;;;;;5149533;27;20030;-62
2022/06/20 03:26:15;;;;;;;5.82;2.25;;;10.90;96.10;;;;;;5153377;27;20035;-63
2022/06/20 03:28:41;;;;;;;5.50;1.77;;;10.90;96.40;;;;;;5153561;27;20045;-62
2022/06/20 03:31:10;;;;;;;6.80;2.40;;;10.90;96.50;;;;;;5146514;27;20122;-62
2022/06/20 03:33:36;;;;;;;5.70;2.35;;;10.90;97.10;;;;;;5141318;27;20061;-62
2022/06/20 03:36:20;;;;;;;6.20;2.20;;;10.90;97.10;;;;;;5151522;27;20066;-62
2022/06/20 03:38:46;;;;;;;4.63;2.22;;;10.90;97.70;;;;;;5152433;27;20343;-62
2022/06/20 03:41:15;;;;;;;5.47;2.10;;;10.90;97.50;;;;;;5146424;27;20042;-62
2022/06/20 03:43:47;;;;;;;7.45;2.60;;;10.90;97.40;;;;;;5151039;27;20035;-62
2022/06/20 03:46:21;;;;;;;7.55;2.42;;;10.90;97.40;;;;;;5128926;27;20446;-62
2022/06/20 03:49:01;;;;;;;4.72;2.17;;;10.90;98.00;;;;;;5143674;27;20040;-62
2022/06/20 03:51:37;;;;;;;4.23;2.37;;;11.00;98.00;;;;;;5146279;27;20074;-62
2022/06/20 03:54:09;;;;;;;5.20;2.20;;;11.00;97.80;;;;;;5147976;27;20432;-62
2022/06/20 03:56:49;;;;;;;5.75;2.10;;;11.00;97.70;;;;;;5149928;27;20118;-62
2022/06/20 03:59:26;;;;;;;4.28;2.40;;;10.90;97.90;;;;;;5150461;27;20042;-62
2022/06/20 04:01:55;;;;;;;8.02;2.60;;;11.00;98.10;;;;;;5149678;27;20043;-63
2022/06/20 04:04:41;;;;;;;5.35;2.30;;;11.00;97.80;;;;;;5140966;27;20041;-62
2022/06/20 04:07:11;;;;;;;4.03;2.42;;;11.00;98.10;;;;;;5148566;27;20038;-62
2022/06/20 04:12:56;;;;;;;7.25;2.65;;;11.00;98.00;;;;;;5148555;27;20042;-63
2022/06/20 04:15:27;;;;;;;7.90;2.85;;;11.00;97.80;;;;;;5137648;27;20498;-62
2022/06/20 04:20:59;;;;;;;4.88;2.60;;;11.00;98.00;;;;;;5145457;27;20031;-62
2022/06/20 04:23:38;;;;;;;6.07;2.83;;;11.10;98.00;;;;;;5154123;27;20042;-62
2022/06/20 04:26:17;;;;;;;5.80;2.63;;;11.10;98.10;;;;;;5148988;27;20364;-62
2022/06/20 04:28:59;;;;;;;6.85;2.58;;;11.20;98.20;;;;;;5147854;27;20053;-63
2022/06/20 04:31:52;;;;;;;6.15;2.75;;;11.20;98.10;;;;;;5151405;27;20438;-62
2022/06/20 04:34:44;;;;;;;7.90;2.85;;;11.20;98.40;;;;;;5148410;27;20034;-62
2022/06/20 04:37:30;;;;;;;6.00;2.50;;;11.40;98.70;;;;;;5141290;27;20482;-63
2022/06/20 04:40:01;;;;;;;8.65;2.92;;;11.40;98.50;;;;;;5129694;27;20068;-62
2022/06/20 04:42:50;;;;;;;4.88;2.95;;;11.60;97.90;;;;;;5144583;27;20038;-63
2022/06/20 04:45:34;;;;;;;4.90;2.88;;;11.60;98.10;;;;;;5144907;27;20156;-62
2022/06/20 04:48:22;;;;;;;5.90;2.67;;;11.80;97.80;;;;;;5151012;27;20046;-63
2022/06/20 04:51:01;;;;;;;7.45;3.05;;;12.00;97.80;;;;;;5149071;27;20066;-63
2022/06/20 04:53:38;;;;;;;6.82;3.55;;;12.10;97.70;;;;;;5146869;27;20047;-63
2022/06/20 04:56:07;;;;;;;4.90;2.70;;;12.30;97.80;;;;;;5143328;27;20046;-62
2022/06/20 04:58:39;;;;;;;5.72;2.58;;;12.50;97.80;;;;;;5149657;27;20113;-62
2022/06/20 05:01:07;;;;;;;4.10;2.80;;;12.50;97.70;;;;;;5140318;27;20054;-62
2022/06/20 05:03:39;;;;;;;8.20;3.85;;;12.70;97.40;;;;;;5146567;27;20042;-62
2022/06/20 05:06:09;;;;;;;6.80;2.70;;;12.70;97.30;;;;;;5147294;27;20447;-63
2022/06/20 05:08:43;;;;;;;7.72;2.60;;;12.60;97.20;;;;;;5144620;27;20047;-63
2022/06/20 05:11:17;;;;;;;4.85;2.58;;;12.80;97.10;;;;;;5142958;27;20045;-63
2022/06/20 05:13:50;;;;;;;5.72;2.75;;;12.90;97.10;;;;;;5147662;27;20041;-63
2022/06/20 05:16:22;;;;;;;6.28;2.50;;;13.10;97.10;;;;;;5142637;27;20038;-63
2022/06/20 05:18:59;;;;;;;8.02;3.00;;;13.30;97.00;;;;;;5143021;27;20042;-63
2022/06/20 05:21:28;;;;;;;4.45;2.65;;;13.50;96.50;;;;;;5151323;27;20099;-63
2022/06/20 05:23:58;;;;;;;6.55;2.67;;;13.60;96.60;;;;;;5144949;27;20042;-63
2022/06/20 05:26:27;;;;;;;11.00;3.42;;;13.80;96.30;;;;;;5149342;27;20038;-63
2022/06/20 05:28:56;;;;;;;9.32;3.35;;;13.90;96.10;;;;;;5152324;27;20594;-63
2022/06/20 05:31:34;;;;;;;5.47;2.55;;;14.10;96.00;;;;;;5148677;27;20031;-63
2022/06/20 05:34:10;;;;;;;6.63;2.70;;;14.20;95.20;;;;;;5146988;27;20054;-63
2022/06/20 05:36:50;;;;;;;9.82;3.20;;;14.40;95.20;;;;;;5146948;27;21035;-63
2022/06/20 05:39:28;;;;;;;7.50;2.70;;;14.50;94.10;;;;;;5144048;27;20035;-63
2022/06/20 05:41:53;;;;;;;7.82;2.40;;;14.70;94.10;;;;;;5145667;27;20133;-63
2022/06/20 05:44:19;;;;;;;7.97;2.92;;;14.90;94.70;;;;;;5152195;27;20558;-63
2022/06/20 05:47:00;;;;;;;6.05;2.58;;;15.00;94.40;;;;;;5148516;27;20059;-63
2022/06/20 05:49:52;;;;;;;6.35;2.63;;;15.20;92.70;;;;;;5151851;27;20508;-63
2022/06/20 05:52:23;;;;;;;4.13;2.22;;;15.40;93.10;;;;;;5149616;27;20043;-64
2022/06/20 05:54:56;;;;;;;7.05;2.80;;;15.50;92.50;;;;;;5127231;27;20051;-63
2022/06/20 05:57:24;;;;;;;9.23;2.70;;;15.70;92.30;;;;;;5129652;27;20039;-63
2022/06/20 05:59:59;;;;;;;7.35;2.80;;;15.90;92.10;;;;;;5127043;27;20113;-63
2022/06/20 06:02:42;;;;;;;7.38;2.47;;;16.10;90.90;;;;;;5133432;27;20039;-63
2022/06/20 06:05:15;;;;;;;6.32;2.50;;;16.10;90.00;;;;;;5119761;27;20031;-63
2022/06/20 06:07:48;;;;;;;5.50;2.38;;;16.30;90.30;;;;;;5129267;27;20035;-63
2022/06/20 06:10:29;;;;;;;7.00;2.83;;;16.50;89.70;;;;;;5128372;27;20032;-63
2022/06/20 06:13:12;;;;;;;8.95;3.25;;;16.70;88.00;;;;;;5127780;27;20050;-63
2022/06/20 06:19:01;;;;;;;10.50;2.88;;;17.10;83.70;;;;;;5130133;27;20075;-64
2022/06/20 06:21:28;;;;;;;7.40;2.85;;;17.20;80.70;;;;;;5132020;27;20434;-64
2022/06/20 06:23:54;;;;;;;6.55;2.75;;;17.30;85.80;;;;;;5130580;27;20401;-63
2022/06/20 06:26:20;;;;;;;9.73;2.67;;;17.50;84.30;;;;;;5129616;27;20031;-64
2022/06/20 06:28:48;;;;;;;13.27;2.97;;;17.60;83.30;;;;;;5120544;27;20039;-63
2022/06/20 06:31:26;;;;;;;6.10;2.35;;;17.80;81.60;;;;;;5127990;27;20064;-64
2022/06/20 06:34:13;;;;;;;8.70;2.67;;;18.00;79.10;;;;;;5115840;27;20040;-64
2022/06/20 06:36:41;;;;;;;6.78;2.85;;;18.10;75.30;;;;;;5131975;27;20039;-64
2022/06/20 06:39:19;;;;;;;5.85;2.40;;;18.20;78.30;;;;;;5131703;27;20057;-64
2022/06/20 06:41:48;;;;;;;5.70;2.53;;;18.40;76.10;;;;;;5133621;27;20061;-64
2022/06/20 06:44:18;;;;;;;9.18;2.92;;;18.50;76.90;;;;;;5129403;27;20047;-64
2022/06/20 06:46:48;;;;;;;6.15;2.80;;;18.50;75.40;;;;;;5128996;27;20039;-64
2022/06/20 06:49:26;;;;;;;7.60;2.75;;;18.50;75.30;;;;;;5116575;27;20448;-64
2022/06/20 06:52:04;;;;;;;6.88;2.42;;;18.70;74.10;;;;;;5133357;27;20039;-64
2022/06/20 06:54:42;;;;;;;4.57;2.10;;;18.70;73.00;;;;;;5148529;27;20059;-64
2022/06/20 06:57:36;;;;;;;6.85;2.40;;;18.70;71.10;;;;;;5145281;27;20142;-64
2022/06/20 07:00:04;;;;;;;11.10;2.80;;;18.30;71.30;;;;;;5138908;27;20065;-64
2022/06/20 07:02:37;;;;;;;10.00;2.58;;;18.30;73.30;;;;;;5144551;27;20967;-64
2022/06/20 07:05:14;;;;;;;3.92;1.67;;;18.30;72.50;;;;;;5130015;27;20034;-64
2022/06/20 07:07:49;;;;;;;6.75;2.20;;;18.40;71.40;;;;;;5127233;27;20030;-64
2022/06/20 07:10:28;;;;;;;7.13;2.38;;;18.40;71.20;;;;;;5144121;27;20083;-64
2022/06/20 07:13:02;;;;;;;3.42;2.10;;;18.20;70.00;;;;;;5144863;27;20043;-64
2022/06/20 07:15:30;;;;;;;4.30;2.08;;;17.90;70.60;;;;;;5142312;27;20045;-64
2022/06/20 07:18:01;;;;;;;7.97;2.30;;;18.10;71.20;;;;;;5148046;27;20027;-64
2022/06/20 07:20:34;;;;;;;7.82;2.42;;;18.20;69.50;;;;;;5150720;27;20039;-64
2022/06/20 07:23:04;;;;;;;6.18;1.98;;;18.30;70.30;;;;;;5146752;27;20043;-64
2022/06/20 07:25:35;;;;;;;5.97;2.35;;;18.30;70.20;;;;;;5136460;27;20043;-64
2022/06/20 07:28:34;;;;;;;11.77;2.50;;;18.50;69.50;;;;;;5145578;27;20031;-64
2022/06/20 07:31:30;;;;;;;8.32;2.70;;;19.00;67.10;;;;;;5147283;27;20047;-64
2022/06/20 07:34:08;;;;;;;4.25;2.30;;;19.50;64.70;;;;;;5150889;27;20100;-64
2022/06/20 07:36:47;;;;;;;5.13;1.98;;;20.10;66.90;;;;;;5123103;27;20058;-64
2022/06/20 07:39:28;;;;;;;6.47;2.23;;;20.60;63.90;;;;;;5150515;27;20094;-64
2022/06/20 07:42:03;;;;;;;8.10;2.10;;;21.00;61.60;;;;;;5151538;27;20071;-64
2022/06/20 07:44:38;;;;;;;5.15;1.90;;;21.30;60.10;;;;;;5149269;27;20038;-65
2022/06/20 07:47:17;;;;;;;4.88;1.90;;;21.60;59.50;;;;;;5148318;27;20023;-64
2022/06/20 07:49:54;;;;;;;5.80;2.10;;;21.90;57.50;;;;;;5150706;27;20387;-65
2022/06/20 07:52:25;;;;;;;7.55;2.35;;;22.20;57.60;;;;;;5150851;27;20435;-65
2022/06/20 07:54:56;;;;;;;6.10;2.22;;;22.50;58.80;;;;;;5150887;27;20081;-65
2022/06/20 07:57:26;;;;;;;7.40;2.17;;;22.60;57.30;;;;;;5151879;27;20054;-65
2022/06/20 08:00:07;;;;;;;5.22;2.00;;;22.70;56.50;;;;;;5145134;27;20030;-66
2022/06/20 08:02:48;;;;;;;7.43;2.20;;;22.50;55.20;;;;;;5153627;27;20042;-65
2022/06/20 08:05:20;;;;;;;8.80;2.28;;;22.50;55.40;;;;;;5134686;27;20497;-65
2022/06/20 08:08:05;;;;;;;3.40;1.98;;;22.40;54.90;;;;;;5149916;27;20426;-63
2022/06/20 08:11:00;;;;;;;9.30;1.92;;;22.20;55.30;;;;;;5152494;27;20121;-63
2022/06/20 08:13:37;;;;;;;7.78;2.08;;;21.60;52.40;;;;;;5150240;27;20053;-62
2022/06/20 08:16:14;;;;;;;6.22;2.33;;;21.30;55.10;;;;;;5148267;27;20027;-63
2022/06/20 08:18:40;;;;;;;5.65;2.10;;;20.60;56.10;;;;;;5153237;27;20030;-63
2022/06/20 08:21:21;;;;;;;6.10;1.90;;;20.60;56.50;;;;;;5154062;27;20031;-62
2022/06/20 08:23:51;;;;;;;5.50;2.00;;;20.50;56.00;;;;;;5132760;27;20575;-61
2022/06/20 08:26:25;;;;;;;;;;;20.20;57.40;;;;;;5146360;27;20096;-63
2022/06/20 08:28:56;;;;;;;4.57;2.33;;;19.80;57.60;;;;;;5149534;27;19975;-62
2022/06/20 08:31:30;;;;;;;7.70;2.13;;;19.40;59.30;;;;;;5129392;27;20125;-62
2022/06/20 08:34:17;;;;;;;8.65;2.22;;;19.50;59.60;;;;;;5150379;27;20121;-63
2022/06/20 08:36:46;;;;;;;8.10;2.65;;;19.90;59.00;;;;;;5151285;27;20524;-63
2022/06/20 08:39:17;;;;;;;5.38;2.05;;;20.70;58.70;;;;;;5149726;27;20051;-63
2022/06/20 08:42:37;;;;;;;6.70;2.00;;;21.70;56.90;;;;;;5147481;27;20474;-63
2022/06/20 08:45:11;;;;;;;4.33;1.93;;;21.70;56.20;;;;;;5062502;28;20074;-63
2022/06/20 08:48:30;;;;;;;8.60;2.10;;;21.30;57.30;;;;;;5065345;28;20036;-62
2022/06/20 08:51:07;;;;;;;3.53;1.52;;;21.00;56.10;;;;;;5063827;28;20040;-63
2022/06/20 08:54:05;;;;;;;6.97;1.90;;;20.60;56.90;;;;;;5142274;27;20111;-62
2022/06/20 08:56:45;;;;;;;3.38;1.55;;;20.70;56.50;;;;;;5152730;27;20046;-63
2022/06/20 08:59:43;;;;;;;4.25;1.60;;;21.40;54.90;;;;;;5148117;27;20635;-63
2022/06/20 09:02:33;;;;;;;2.22;0.88;;;22.10;54.10;;;;;;5059401;27;20044;-63
2022/06/20 09:05:16;;;;;;;2.42;1.10;;;23.30;50.70;;;;;;5146773;27;20778;-63
2022/06/20 09:07:59;;;;;;;3.67;1.30;;;24.20;50.20;;;;;;5141291;27;20039;-63
2022/06/20 09:10:35;;;;;;;3.13;1.38;;;25.00;48.30;;;;;;5143095;27;20481;-64
2022/06/20 09:13:22;;;;;;;3.03;1.10;;;25.70;47.50;;;;;;5144410;27;20030;-64
2022/06/20 09:16:01;;;;;;;1.73;0.80;;;26.60;44.70;;;;;;5139088;27;20121;-64
2022/06/20 09:18:46;;;;;;;1.63;0.90;;;27.20;42.50;;;;;;5148297;27;20074;-63
2022/06/20 09:21:17;;;;;;;3.15;0.82;;;26.80;40.60;;;;;;5152981;27;20042;-63
2022/06/20 09:24:09;;;;;;;3.58;1.30;;;25.80;43.30;;;;;;5145911;27;20072;-63
2022/06/20 09:27:12;;;;;;;2.90;1.20;;;24.80;43.90;;;;;;5123259;27;20038;-63
2022/06/20 09:29:59;;;;;;;2.50;0.93;;;24.30;44.00;;;;;;5119986;27;20477;-63
2022/06/20 09:32:34;;;;;;;2.47;1.23;;;24.20;44.40;;;;;;5124117;27;20430;-63
2022/06/20 09:35:20;;;;;;;2.35;1.10;;;23.90;45.00;;;;;;5150777;27;20035;-63
2022/06/20 09:38:15;;;;;;;3.55;1.17;;;23.80;46.40;;;;;;5130928;27;20039;-63
2022/06/20 09:41:17;;;;;;;3.38;1.20;;;24.40;45.30;;;;;;5145741;27;20057;-64
2022/06/20 09:43:43;;;;;;;4.18;1.00;;;24.50;44.40;;;;;;5105731;27;20049;-63
2022/06/20 09:46:32;;;;;;;3.30;1.40;;;24.40;44.80;;;;;;5146314;27;20042;-63
2022/06/20 09:49:37;;;;;;;2.40;0.97;;;24.20;44.00;;;;;;5126438;27;20473;-63
2022/06/20 09:52:34;;;;;;;1.75;1.20;;;24.30;44.40;;;;;;5152121;27;20122;-63
2022/06/20 09:55:31;;;;;;;4.35;1.63;;;24.00;44.60;;;;;;5146066;27;20047;-64
2022/06/20 09:58:19;;;;;;;6.43;1.23;;;23.40;45.30;;;;;;5147447;27;20030;-63
2022/06/20 10:00:56;;;;;;;3.30;1.15;;;23.30;47.20;;;;;;5130295;27;20043;-63
2022/06/20 10:03:46;;;;;;;5.55;1.50;;;24.60;46.60;;;;;;5143397;27;20045;-64
2022/06/20 10:06:39;;;;;;;3.35;1.10;;;26.20;44.20;;;;;;5150428;27;20083;-63
2022/06/20 10:09:05;;;;;;;3.20;1.05;;;27.80;41.30;;;;;;5147873;27;20049;-63
2022/06/20 10:11:44;;;;;;;3.80;1.20;;;28.90;39.50;;;;;;5139103;27;20035;-63
2022/06/20 10:14:20;;;;;;;1.92;1.00;;;28.20;38.30;;;;;;5123045;27;20099;-63
2022/06/20 10:17:08;;;;;;;3.53;1.10;;;26.90;39.30;;;;;;5145475;27;20039;-63
2022/06/20 10:19:40;;;;;;;4.65;1.40;;;25.60;39.60;;;;;;5125476;27;20064;-63
2022/06/20 10:22:29;;;;;;;4.45;1.20;;;24.70;41.60;;;;;;5151834;27;20090;-63
2022/06/20 10:25:39;;;;;;;3.33;1.23;;;23.80;43.10;;;;;;5146736;27;20039;-62
2022/06/20 10:28:05;;;;;;;;;;;23.50;44.10;;;;;;5151478;27;20038;-63
2022/06/20 10:31:08;;;;;;;2.10;1.00;;;23.90;44.80;;;;;;5133773;27;20577;-63
2022/06/20 10:33:36;;;;;;;4.03;1.30;;;25.10;43.30;;;;;;5152246;27;20418;-63
2022/06/20 10:36:23;;;;;;;2.58;1.40;;;24.80;42.60;;;;;;5153646;27;20046;-63
2022/06/20 10:39:10;;;;;;;3.00;1.20;;;25.10;42.90;;;;;;5148489;27;20038;-63
2022/06/20 10:41:57;;;;;;;4.13;1.45;;;26.20;42.20;;;;;;5154429;27;20034;-63
2022/06/20 10:44:37;;;;;;;1.65;1.23;;;27.40;40.10;;;;;;5150089;27;20040;-63
2022/06/20 10:47:24;;;;;;;3.50;1.52;;;28.20;39.60;;;;;;5145548;27;20031;-64
2022/06/20 10:50:29;;;;;;;2.78;1.25;;;29.20;35.90;;;;;;5142673;27;20035;-63
2022/06/20 10:53:13;;;;;;;4.28;1.23;;;28.30;36.40;;;;;;5046116;28;20045;-64
2022/06/20 10:56:37;;;;;;;2.70;1.17;;;28.90;36.10;;;;;;5143428;27;20042;-64
2022/06/20 10:59:21;;;;;;;1.98;0.93;;;30.30;35.20;;;;;;5062947;27;20356;-64
2022/06/20 11:02:02;;;;;;;3.17;1.00;;;30.20;35.30;;;;;;5143763;27;20039;-63
2022/06/20 11:04:49;;;;;;;3.20;1.20;;;28.90;35.00;;;;;;5153534;27;20513;-63
2022/06/20 11:07:46;;;;;;;1.65;0.70;;;27.70;36.40;;;;;;5145293;27;20043;-64
2022/06/20 11:10:35;;;;;;;2.92;0.95;;;26.90;36.60;;;;;;5144519;27;20065;-64
2022/06/20 11:13:32;;;;;;;4.03;1.02;;;25.70;37.90;;;;;;5149958;27;20034;-64
2022/06/20 11:16:26;;;;;;;1.67;0.88;;;25.80;39.60;;;;;;5144106;27;20049;-63
2022/06/20 11:19:02;;;;;;;3.42;0.98;;;25.60;40.20;;;;;;5132853;27;20055;-63
2022/06/20 11:21:43;;;;;;;2.85;1.00;;;25.30;40.10;;;;;;5155719;27;20050;-62
2022/06/20 11:24:27;;;;;;;2.72;1.20;;;24.90;40.20;;;;;;5153229;27;20383;-63
2022/06/20 11:27:20;;;;;;;3.63;1.23;;;24.50;41.10;;;;;;5151687;27;20041;-62
2022/06/20 11:29:45;;;;;;;4.45;1.30;;;24.00;41.80;;;;;;5132630;27;20035;-63
2022/06/20 11:32:33;;;;;;;3.63;0.77;;;23.80;42.80;;;;;;5144094;27;20058;-63
2022/06/20 11:35:14;;;;;;;3.05;1.15;;;23.80;43.30;;;;;;5151417;27;20038;-63
2022/06/20 11:38:16;;;;;;;5.38;1.20;;;23.90;43.40;;;;;;5108902;27;20047;-63
2022/06/20 11:41:05;;;;;;;3.63;1.30;;;23.40;42.00;;;;;;5151275;27;20041;-63
2022/06/20 11:43:31;;;;;;;3.13;1.13;;;23.50;42.70;;;;;;5132529;27;20043;-63
2022/06/20 11:46:34;;;;;;;3.35;1.25;;;23.60;43.00;;;;;;5148237;27;20072;-63
2022/06/20 11:49:29;;;;;;;5.00;1.17;;;23.40;43.30;;;;;;5151815;27;20095;-63
2022/06/20 11:52:03;;;;;;;2.75;1.17;;;23.50;43.70;;;;;;5151835;27;20051;-63
2022/06/20 11:55:23;;;;;;;3.78;1.20;;;23.50;43.70;;;;;;5153876;27;20090;-63
2022/06/20 11:58:05;;;;;;;3.53;1.20;;;23.20;43.80;;;;;;5061631;28;20575;-63
2022/06/20 12:00:38;;;;;;;5.35;1.45;;;23.00;43.70;;;;;;5144243;27;20512;-62
2022/06/20 12:03:34;;;;;;;4.00;1.40;;;22.80;44.00;;;;;;5148722;27;20356;-62
2022/06/20 12:06:31;;;;;;;4.07;1.52;;;22.60;44.30;;;;;;5151194;27;20384;-62
2022/06/20 12:09:03;;;;;;;5.45;1.80;;;22.60;45.20;;;;;;5151817;27;20030;-62
2022/06/20 12:12:12;;;;;;;3.92;1.15;;;22.60;45.40;;;;;;5154355;27;20038;-63
2022/06/20 12:15:06;;;;;;;5.10;1.63;;;22.90;45.60;;;;;;5113857;27;20046;-63
2022/06/20 12:17:48;;;;;;;5.03;1.60;;;23.20;45.40;;;;;;5140213;27;20075;-63
2022/06/20 12:25:44;;;;;;;3.08;1.30;;;25.30;42.00;;;;;;5146010;27;20086;-63
2022/06/20 12:28:34;;;;;;;4.50;1.50;;;27.00;39.90;;;;;;5150251;27;20082;-63
2022/06/20 12:31:28;;;;;;;3.13;1.67;;;26.60;38.80;;;;;;5146683;27;20042;-63
2022/06/20 12:34:20;;;;;;;2.67;1.40;;;25.20;39.80;;;;;;5149402;27;20556;-63
2022/06/20 12:37:02;;;;;;;4.72;1.77;;;25.20;40.30;;;;;;5101662;27;20047;-62
2022/06/20 12:39:34;;;;;;;3.25;1.50;;;25.20;40.20;;;;;;5147649;27;20115;-63
2022/06/20 12:42:13;;;;;;;2.03;1.10;;;26.20;39.90;;;;;;5152627;27;20042;-63
2022/06/20 12:45:07;;;;;;;2.40;1.20;;;28.30;37.80;;;;;;5149466;27;20031;-63
2022/06/20 12:48:06;;;;;;;3.35;1.20;;;29.70;35.10;;;;;;5128424;27;20043;-63
2022/06/20 12:50:55;;;;;;;2.88;1.30;;;29.10;34.50;;;;;;5159704;27;20034;-64
2022/06/20 12:53:44;;;;;;;3.60;1.35;;;28.60;34.50;;;;;;5124035;27;20098;-63
2022/06/20 12:56:19;;;;;;;4.85;1.50;;;28.70;35.10;;;;;;5149231;27;20047;-63
2022/06/20 12:59:08;;;;;;;3.85;1.30;;;30.30;34.90;;;;;;5150284;27;20034;-63
2022/06/20 13:01:53;;;;;;;4.03;1.50;;;30.30;33.30;;;;;;5149838;27;20038;-63
2022/06/20 13:04:30;;;;;;;2.08;1.00;;;30.40;33.30;;;;;;5135418;27;20068;-63
2022/06/20 13:07:27;;;;;;;3.38;1.25;;;28.70;34.20;;;;;;5147670;27;20057;-63
2022/06/20 13:10:17;;;;;;;2.63;1.20;;;27.20;35.00;;;;;;5131362;27;20091;-63
2022/06/20 13:13:01;;;;;;;3.65;1.30;;;27.50;36.40;;;;;;5148383;27;20490;-63
2022/06/20 13:15:31;;;;;;;1.33;1.08;;;28.90;35.90;;;;;;5139461;27;20427;-63
2022/06/20 13:18:24;;;;;;;2.08;1.10;;;29.90;34.10;;;;;;5141631;27;20176;-63
2022/06/20 13:21:07;;;;;;;2.13;1.35;;;31.00;32.90;;;;;;5136952;27;20042;-63
2022/06/20 13:23:47;;;;;;;3.08;1.00;;;30.40;32.00;;;;;;5152411;27;20039;-62
2022/06/20 13:26:44;;;;;;;3.00;1.05;;;29.20;31.70;;;;;;5149197;27;20039;-63
2022/06/20 13:29:29;;;;;;;1.30;1.00;;;27.80;33.30;;;;;;5133268;27;20039;-63
2022/06/20 13:32:05;;;;;;;5.13;1.27;;;26.90;34.70;;;;;;5143784;27;20070;-63
2022/06/20 13:34:53;;;;;;;2.40;1.10;;;26.20;36.80;;;;;;5152010;27;20031;-63
2022/06/20 13:37:23;;;;;;;1.70;1.20;;;25.60;37.50;;;;;;5149840;27;20027;-63
2022/06/20 13:40:24;;;;;;;1.90;1.23;;;26.00;37.40;;;;;;5150691;27;20035;-63
2022/06/20 13:43:05;;;;;;;4.47;1.20;;;25.50;37.70;;;;;;5095163;27;20050;-63
2022/06/20 13:45:40;;;;;;;3.20;1.40;;;25.00;39.00;;;;;;5137165;27;20041;-63
2022/06/20 13:48:40;;;;;;;1.95;1.33;;;24.80;40.00;;;;;;5141812;27;20038;-63
2022/06/20 13:51:29;;;;;;;3.65;1.48;;;24.50;40.60;;;;;;5135982;27;20207;-63
2022/06/20 13:54:04;;;;;;;2.42;1.27;;;23.90;41.60;;;;;;5146589;27;20077;-63
2022/06/20 13:56:34;;;;;;;2.85;1.20;;;23.40;42.40;;;;;;5155661;27;20167;-63
2022/06/20 13:59:03;;;;;;;;;;;23.00;43.00;;;;;;5133405;27;20034;-63
2022/06/20 14:01:41;;;;;;;5.97;1.60;;;22.60;44.10;;;;;;5153136;27;19949;-63
2022/06/20 14:04:13;;;;;;;5.25;1.40;;;22.40;44.60;;;;;;5152859;27;20073;-63